Time;durP1;ratioP1;P1;durP2;ratioP2;P2;SDS_P1;SDS_P2;PMS_P1;PMS_P2;Temp;Humidity;BMP_temperature;BMP_pressure;BME280_temperature;BME280_humidity;BME280_pressure;Samples;Min_cycle;Max_cycle;Signal;HPM_P1;HPM_P2
2021/12/24 00:00:43;;;;;;;93.50;48.88;;;;;;;0.83;90.62;99969.47;5104018;28;20394;-67
2021/12/24 00:03:09;;;;;;;98.70;50.50;;;;;;;0.89;90.58;99968.25;5089435;28;20058;-67
2021/12/24 00:05:35;;;;;;;91.07;50.33;;;;;;;0.87;90.10;99954.31;5090737;28;20028;-65
2021/12/24 00:08:01;;;;;;;94.32;50.13;;;;;;;0.83;90.01;99955.41;5103012;28;20115;-67
2021/12/24 00:10:30;;;;;;;96.43;49.20;;;;;;;0.94;90.35;99955.69;5098210;28;20024;-67
2021/12/24 00:13:00;;;;;;;90.47;49.83;;;;;;;0.90;90.43;99944.44;5104880;28;20434;-67
2021/12/24 00:18:29;;;;;;;89.20;49.72;;;;;;;0.92;90.21;99942.56;5091583;28;20039;-67
2021/12/24 00:37:08;;;;;;;91.38;46.65;;;;;;;0.98;90.69;99944.88;5100030;28;19958;-66
2021/12/24 00:39:38;;;;;;;90.78;48.40;;;;;;;1.06;90.67;99969.06;5089097;28;20055;-66
2021/12/24 00:42:04;;;;;;;90.28;48.42;;;;;;;1.12;90.37;99971.38;5089258;28;20020;-66
2021/12/24 00:44:30;;;;;;;92.10;48.10;;;;;;;1.07;90.14;99956.72;5100000;28;20028;-67
2021/12/24 00:46:55;;;;;;;92.10;49.80;;;;;;;1.11;90.29;99964.38;5101668;28;20031;-66
2021/12/24 00:49:20;;;;;;;93.50;48.97;;;;;;;1.17;90.41;99971.13;5095754;28;20050;-67
2021/12/24 00:57:14;;;;;;;92.60;50.63;;;;;;;1.17;90.87;99961.41;5090562;28;20051;-67
2021/12/24 00:59:39;;;;;;;90.88;49.22;;;;;;;1.13;91.03;99948.47;5101121;28;20032;-66
2021/12/24 01:02:04;;;;;;;89.82;47.50;;;;;;;1.17;90.99;99948.22;5102433;28;20028;-66
2021/12/24 01:04:31;;;;;;;93.80;48.70;;;;;;;1.20;91.35;99955.97;5104145;28;20031;-67
2021/12/24 01:06:56;;;;;;;96.72;48.90;;;;;;;1.22;91.05;99951.44;5093370;28;20032;-66
2021/12/24 01:09:22;;;;;;;96.50;49.20;;;;;;;1.18;91.08;99934.06;5109589;28;20120;-67
2021/12/24 01:11:47;;;;;;;99.88;50.05;;;;;;;1.25;91.17;99938.06;5105596;28;20035;-67
2021/12/24 01:14:13;;;;;;;93.47;49.20;;;;;;;1.25;91.38;99934.56;5106146;28;20031;-66
2021/12/24 01:16:46;;;;;;;89.47;48.60;;;;;;;1.24;91.18;99923.16;5099337;28;20028;-67
2021/12/24 01:19:18;;;;;;;97.47;51.05;;;;;;;1.29;91.63;99923.72;5096286;28;20028;-67
2021/12/24 01:24:15;;;;;;;101.63;52.33;;;;;;;1.28;91.20;99895.63;5088451;28;20081;-67
2021/12/24 01:26:55;;;;;;;94.15;51.60;;;;;;;1.25;90.98;99893.16;5099641;28;20030;-67
2021/12/24 01:37:58;;;;;;;93.55;51.97;;;;;;;1.36;90.76;99900.47;5100860;28;20070;-67
2021/12/24 01:40:38;;;;;;;93.00;48.28;;;;;;;1.39;91.21;99901.13;5106452;28;20054;-66
2021/12/24 01:43:04;;;;;;;90.88;50.55;;;;;;;1.43;91.47;99902.69;5099349;28;20467;-66
2021/12/24 01:45:33;;;;;;;95.25;48.72;;;;;;;1.40;91.02;99870.28;5108764;28;20027;-66
2021/12/24 01:48:06;;;;;;;91.03;48.50;;;;;;;1.49;91.19;99873.25;5106372;28;20089;-67
2021/12/24 01:50:34;;;;;;;92.80;49.10;;;;;;;1.42;91.59;99853.41;5098186;28;20040;-67
2021/12/24 01:53:01;;;;;;;93.45;50.45;;;;;;;1.48;91.16;99831.91;5103829;28;20024;-67
2021/12/24 01:55:27;;;;;;;95.72;48.85;;;;;;;1.52;91.23;99808.81;5094921;28;20111;-67
2021/12/24 01:57:53;;;;;;;90.75;48.92;;;;;;;1.54;91.43;99813.06;5103372;28;20095;-68
2021/12/24 02:00:25;;;;;;;90.65;50.35;;;;;;;1.50;91.48;99797.47;5107248;28;20115;-65
2021/12/24 02:02:51;;;;;;;94.03;48.33;;;;;;;1.51;91.39;99800.03;5102244;28;20102;-65
2021/12/24 02:05:17;;;;;;;88.57;48.42;;;;;;;1.55;91.00;99793.63;5094409;28;20122;-66
2021/12/24 02:07:43;;;;;;;89.82;49.20;;;;;;;1.55;91.54;99780.41;5098832;28;20059;-66
2021/12/24 02:10:11;;;;;;;89.25;48.58;;;;;;;1.56;91.26;99776.84;5100962;28;20958;-66
2021/12/24 02:12:37;;;;;;;93.00;50.60;;;;;;;1.62;90.68;99786.19;5101379;28;20034;-67
2021/12/24 02:15:07;;;;;;;88.97;47.17;;;;;;;1.53;90.66;99768.25;5095952;28;20360;-69
2021/12/24 02:28:39;;;;;;;93.00;48.17;;;;;;;1.59;91.39;99783.72;5098645;28;20046;-67
2021/12/24 02:31:12;;;;;;;83.38;47.22;;;;;;;1.69;91.71;99803.38;5104008;28;20032;-69
2021/12/24 02:33:38;;;;;;;90.50;48.33;;;;;;;1.65;92.05;99792.13;5096990;28;20036;-68
2021/12/24 02:36:05;;;;;;;92.20;48.72;;;;;;;1.67;92.32;99784.97;5095679;28;20447;-69
2021/12/24 02:38:31;;;;;;;95.85;48.25;;;;;;;1.67;92.67;99774.41;5108293;28;20406;-69
2021/12/24 02:40:57;;;;;;;84.80;47.95;;;;;;;1.69;92.77;99767.25;5100156;28;20028;-68
2021/12/24 02:43:24;;;;;;;92.70;46.90;;;;;;;1.68;92.37;99752.31;5099361;28;20095;-68
2021/12/24 02:45:55;;;;;;;88.10;48.55;;;;;;;1.67;92.33;99747.97;5098546;28;20023;-68
2021/12/24 02:56:24;;;;;;;88.57;46.03;;;;;;;1.73;92.57;99731.75;5105022;28;20080;-68
2021/12/24 02:58:49;;;;;;;86.72;47.45;;;;;;;1.72;92.73;99714.19;5104317;28;20037;-69
2021/12/24 03:01:18;;;;;;;86.47;46.70;;;;;;;1.74;92.69;99719.38;5095925;28;20134;-67
2021/12/24 03:03:48;;;;;;;81.43;46.67;;;;;;;1.78;92.53;99715.59;5097352;28;20040;-66
2021/12/24 03:06:17;;;;;;;77.85;44.72;;;;;;;1.74;92.47;99714.94;5092540;28;20221;-66
2021/12/24 03:08:42;;;;;;;83.10;45.97;;;;;;;1.68;92.28;99707.38;5094547;28;20024;-65
2021/12/24 03:11:08;;;;;;;81.15;46.70;;;;;;;1.78;92.67;99716.44;5110104;28;20020;-67
2021/12/24 03:13:35;;;;;;;86.90;46.03;;;;;;;1.74;92.32;99700.88;5094317;28;20034;-67
2021/12/24 03:16:01;;;;;;;86.00;47.15;;;;;;;1.83;92.92;99711.72;5094459;28;20118;-66
2021/12/24 03:18:30;;;;;;;78.63;45.45;;;;;;;1.71;92.72;99691.34;5092772;28;20104;-67
2021/12/24 03:21:08;;;;;;;81.65;46.55;;;;;;;1.77;92.83;99690.97;5091420;28;20028;-66
2021/12/24 03:26:00;;;;;;;84.80;46.78;;;;;;;1.88;92.65;99671.78;5091807;28;20024;-66
2021/12/24 03:28:25;;;;;;;82.82;46.72;;;;;;;1.89;92.58;99642.63;5110110;28;20032;-67
2021/12/24 03:30:51;;;;;;;82.78;46.92;;;;;;;1.92;92.26;99634.50;5109802;28;20035;-67
2021/12/24 03:33:17;;;;;;;81.30;45.25;;;;;;;1.89;92.40;99617.97;5104981;28;20024;-66
2021/12/24 03:35:42;;;;;;;81.90;45.88;;;;;;;1.93;92.57;99617.69;5091055;28;20137;-66
2021/12/24 03:38:07;;;;;;;86.47;46.83;;;;;;;2.06;91.65;99628.31;5111411;28;20106;-67
2021/12/24 03:40:33;;;;;;;83.75;44.92;;;;;;;2.01;91.69;99636.56;5101964;28;20120;-66
2021/12/24 03:42:59;;;;;;;89.43;47.35;;;;;;;2.00;92.14;99645.41;5101917;28;20016;-67
2021/12/24 03:45:41;;;;;;;82.13;44.95;;;;;;;2.01;92.36;99652.41;5108224;28;20032;-66
2021/12/24 03:48:16;;;;;;;75.88;43.53;;;;;;;2.02;92.68;99640.88;5111001;28;20106;-69
2021/12/24 03:50:54;;;;;;;83.38;45.17;;;;;;;1.99;92.76;99635.78;5099406;28;20048;-69
2021/12/24 03:56:04;;;;;;;86.03;44.10;;;;;;;2.01;93.00;99631.28;5092804;28;20049;-68
2021/12/24 03:58:29;;;;;;;79.85;44.90;;;;;;;2.00;93.16;99616.31;5108675;28;20114;-68
2021/12/24 04:00:55;;;;;;;76.63;42.67;;;;;;;2.07;93.39;99628.19;5100309;28;20130;-68
2021/12/24 04:03:21;;;;;;;82.28;44.30;;;;;;;2.09;93.21;99636.91;5102963;28;20023;-69
2021/12/24 04:05:47;;;;;;;78.15;42.60;;;;;;;2.11;93.27;99635.03;5104016;28;20024;-69
2021/12/24 04:08:13;;;;;;;74.38;41.13;;;;;;;2.18;93.56;99628.38;5103293;28;20050;-69
2021/12/24 04:10:41;;;;;;;71.72;41.78;;;;;;;2.19;94.03;99632.72;5093630;28;20023;-69
2021/12/24 04:13:08;;;;;;;74.45;41.47;;;;;;;2.23;94.10;99620.97;5100039;28;20043;-69
2021/12/24 04:15:36;;;;;;;77.47;42.15;;;;;;;2.24;94.25;99628.00;5105507;28;20051;-70
2021/12/24 04:18:11;;;;;;;69.43;38.40;;;;;;;2.28;94.72;99618.03;5101534;28;20110;-69
2021/12/24 04:26:05;;;;;;;72.13;37.17;;;;;;;2.46;94.94;99645.94;5097221;28;19919;-68
2021/12/24 04:28:30;;;;;;;68.40;37.25;;;;;;;2.38;95.09;99635.00;5096819;28;20027;-68
2021/12/24 04:30:55;;;;;;;69.95;38.47;;;;;;;2.44;94.96;99645.19;5097507;28;20028;-69
2021/12/24 04:33:28;;;;;;;69.43;37.85;;;;;;;2.46;95.43;99659.19;5092258;28;20024;-68
2021/12/24 04:36:13;;;;;;;66.55;37.17;;;;;;;2.53;95.01;99668.41;5100212;28;20016;-67
2021/12/24 05:03:14;;;;;;;64.15;38.65;;;;;;;2.40;95.31;99630.47;5100694;28;20164;-68
2021/12/24 05:05:47;;;;;;;61.50;37.33;;;;;;;2.45;95.68;99625.72;5101706;28;20035;-69
2021/12/24 05:10:38;;;;;;;64.13;36.35;;;;;;;2.42;95.77;99616.19;5096719;28;20040;-69
2021/12/24 05:13:09;;;;;;;64.85;36.33;;;;;;;2.48;95.49;99625.50;5099398;28;20031;-68
2021/12/24 05:15:39;;;;;;;68.03;38.58;;;;;;;2.47;95.47;99617.66;5094693;28;20024;-70
2021/12/24 05:23:53;;;;;;;63.25;35.53;;;;;;;2.52;96.21;99608.50;5105621;28;20518;-69
2021/12/24 05:26:19;;;;;;;53.28;31.40;;;;;;;2.54;96.38;99609.22;5101695;28;20023;-69
2021/12/24 05:28:44;;;;;;;62.88;34.47;;;;;;;2.51;96.19;99584.78;5102283;28;20023;-69
2021/12/24 05:31:09;;;;;;;65.75;33.97;;;;;;;2.56;96.60;99601.19;5096636;28;20031;-68
2021/12/24 05:33:35;;;;;;;58.40;32.53;;;;;;;2.60;96.88;99600.88;5095280;28;20041;-68
2021/12/24 05:36:00;;;;;;;56.95;32.88;;;;;;;2.62;96.92;99603.44;5094195;28;20370;-68
2021/12/24 05:38:26;;;;;;;54.35;31.00;;;;;;;2.62;96.97;99595.50;5096752;28;20035;-69
2021/12/24 05:40:51;;;;;;;48.92;30.58;;;;;;;2.66;97.11;99603.13;5089653;28;20016;-69
2021/12/24 05:43:18;;;;;;;52.92;31.05;;;;;;;2.73;97.58;99603.53;5102777;28;20026;-69
2021/12/24 05:45:44;;;;;;;51.28;29.42;;;;;;;2.77;97.34;99599.75;5102596;28;20508;-69
2021/12/24 05:48:10;;;;;;;51.58;29.27;;;;;;;2.64;97.33;99565.31;5096061;28;20036;-69
2021/12/24 05:50:35;;;;;;;48.60;29.33;;;;;;;2.82;97.73;99597.63;5098155;28;20071;-69
2021/12/24 05:53:00;;;;;;;47.28;28.70;;;;;;;2.81;97.64;99586.22;5107152;28;20059;-69
2021/12/24 05:55:27;;;;;;;47.83;28.20;;;;;;;2.90;97.26;99590.88;5102911;28;20061;-68
2021/12/24 05:57:53;;;;;;;47.75;28.13;;;;;;;2.90;97.69;99579.44;5098901;28;20024;-68
2021/12/24 06:00:18;;;;;;;46.35;27.88;;;;;;;2.99;97.86;99584.94;5104204;28;20046;-69
2021/12/24 06:02:44;;;;;;;46.60;28.13;;;;;;;2.99;97.47;99582.28;5098775;28;20020;-66
2021/12/24 06:05:09;;;;;;;45.15;25.60;;;;;;;3.06;97.59;99588.03;5087822;28;20472;-66
2021/12/24 06:07:35;;;;;;;44.00;26.60;;;;;;;3.08;97.93;99580.81;5103974;28;20118;-67
2021/12/24 06:10:00;;;;;;;41.97;25.45;;;;;;;3.08;97.72;99584.31;5104678;28;20479;-67
2021/12/24 06:12:26;;;;;;;44.60;26.85;;;;;;;3.14;97.65;99591.00;5090480;28;20032;-67
2021/12/24 06:14:55;;;;;;;39.22;25.20;;;;;;;3.09;97.90;99577.22;5088649;28;20020;-66
2021/12/24 06:17:22;;;;;;;42.00;24.80;;;;;;;3.15;97.77;99579.44;5092134;28;20045;-67
2021/12/24 06:19:49;;;;;;;38.88;23.42;;;;;;;3.16;97.80;99583.78;5100419;28;20043;-67
2021/12/24 06:22:14;;;;;;;36.03;22.10;;;;;;;3.23;97.73;99608.91;5095957;28;20028;-68
2021/12/24 06:24:40;;;;;;;37.03;23.50;;;;;;;3.26;98.22;99598.09;5107355;28;20038;-66
2021/12/24 06:27:05;;;;;;;35.55;23.55;;;;;;;3.29;98.11;99600.53;5097891;28;20023;-68
2021/12/24 06:29:32;;;;;;;40.42;22.05;;;;;;;3.33;97.84;99607.31;5087928;28;20036;-67
2021/12/24 06:31:57;;;;;;;34.65;21.25;;;;;;;3.37;98.14;99611.44;5098304;28;20056;-67
2021/12/24 06:34:23;;;;;;;37.47;21.42;;;;;;;3.36;97.94;99600.00;5090937;28;20446;-68
2021/12/24 06:36:51;;;;;;;36.47;21.70;;;;;;;3.41;98.02;99608.47;5098114;28;20020;-66
2021/12/24 06:39:17;;;;;;;35.83;21.10;;;;;;;3.47;97.91;99608.03;5089592;28;20059;-67
2021/12/24 06:41:43;;;;;;;33.30;19.73;;;;;;;3.48;98.00;99614.19;5096138;28;20028;-67
2021/12/24 06:44:11;;;;;;;33.05;19.38;;;;;;;3.58;98.12;99633.81;5104294;28;20031;-66
2021/12/24 06:46:38;;;;;;;34.10;19.02;;;;;;;3.63;98.04;99640.47;5104167;28;20035;-67
2021/12/24 06:49:03;;;;;;;31.25;18.80;;;;;;;3.64;98.07;99634.19;5099866;28;20032;-68
2021/12/24 06:51:29;;;;;;;32.70;19.00;;;;;;;3.65;97.59;99635.88;5097164;28;20047;-67
2021/12/24 06:53:55;;;;;;;28.25;17.55;;;;;;;3.75;97.69;99642.25;5093588;28;20475;-67
2021/12/24 06:56:21;;;;;;;30.42;17.48;;;;;;;3.79;97.39;99659.66;5087646;28;20040;-68
2021/12/24 06:58:47;;;;;;;28.52;17.90;;;;;;;3.84;97.83;99659.31;5087395;28;20089;-67
2021/12/24 07:01:12;;;;;;;27.17;17.02;;;;;;;3.79;97.51;99646.38;5096891;28;20015;-66
2021/12/24 07:03:38;;;;;;;28.45;16.80;;;;;;;3.92;97.46;99660.47;5104661;28;20107;-67
2021/12/24 07:06:05;;;;;;;25.83;15.82;;;;;;;3.97;97.40;99658.31;5092602;28;20032;-67
2021/12/24 07:08:31;;;;;;;26.67;16.77;;;;;;;3.95;97.15;99635.53;5098426;28;20036;-67
2021/12/24 07:10:56;;;;;;;27.38;16.15;;;;;;;4.01;96.82;99624.47;5106316;28;20110;-67
2021/12/24 07:13:22;;;;;;;29.05;16.63;;;;;;;4.09;96.94;99638.03;5091948;28;20131;-67
2021/12/24 07:15:48;;;;;;;30.83;17.95;;;;;;;4.08;96.99;99637.19;5102602;28;20024;-67
2021/12/24 07:18:14;;;;;;;27.70;16.30;;;;;;;4.15;96.64;99625.16;5097105;28;20554;-67
2021/12/24 07:20:39;;;;;;;25.90;15.98;;;;;;;4.24;96.51;99636.91;5099023;28;20032;-68
2021/12/24 07:23:05;;;;;;;28.63;15.90;;;;;;;4.27;96.75;99626.09;5097845;28;20032;-67
2021/12/24 07:25:31;;;;;;;28.55;15.57;;;;;;;4.31;96.08;99606.31;5087347;28;20039;-67
2021/12/24 07:27:57;;;;;;;23.52;14.77;;;;;;;4.37;95.93;99600.56;5101265;28;20092;-67
2021/12/24 07:30:22;;;;;;;24.30;15.43;;;;;;;4.50;96.04;99607.50;5095360;28;20972;-67
2021/12/24 07:32:49;;;;;;;25.15;15.27;;;;;;;4.56;95.39;99598.22;5106987;28;20028;-66
2021/12/24 07:35:15;;;;;;;25.08;13.75;;;;;;;4.57;95.55;99574.22;5091268;28;20030;-68
2021/12/24 07:37:41;;;;;;;26.23;14.23;;;;;;;4.66;95.72;99580.66;5102500;28;20450;-67
2021/12/24 07:40:07;;;;;;;26.63;15.90;;;;;;;4.73;95.17;99565.94;5103644;28;20031;-66
2021/12/24 07:42:33;;;;;;;22.45;14.38;;;;;;;4.86;95.09;99565.88;5103683;28;20069;-67
2021/12/24 07:44:59;;;;;;;27.27;14.73;;;;;;;4.81;94.63;99549.41;5098400;28;20551;-66
2021/12/24 07:47:28;;;;;;;29.02;14.93;;;;;;;4.94;94.13;99563.44;5096855;28;20031;-67
2021/12/24 07:50:03;;;;;;;22.92;13.43;;;;;;;4.97;93.97;99564.06;5098389;28;20123;-66
2021/12/24 07:52:30;;;;;;;21.33;13.02;;;;;;;5.07;93.76;99562.41;5098021;28;20515;-67
2021/12/24 07:54:56;;;;;;;23.33;13.43;;;;;;;5.10;93.30;99551.53;5105707;28;20034;-67
2021/12/24 07:57:22;;;;;;;23.77;13.70;;;;;;;5.12;93.08;99530.16;5092529;28;20031;-66
2021/12/24 07:59:48;;;;;;;20.13;12.48;;;;;;;5.29;92.89;99540.31;5104263;28;20540;-67
2021/12/24 08:02:17;;;;;;;21.08;12.30;;;;;;;5.35;92.77;99531.84;5102487;28;20429;-66
2021/12/24 08:04:45;;;;;;;19.35;12.68;;;;;;;5.39;92.59;99518.19;5097353;28;20028;-67
2021/12/24 08:07:12;;;;;;;22.80;12.88;;;;;;;5.46;91.64;99483.97;5089471;28;20044;-67
2021/12/24 08:09:37;;;;;;;23.80;13.35;;;;;;;5.65;91.48;99502.81;5090193;28;20032;-67
2021/12/24 08:12:07;;;;;;;22.20;13.07;;;;;;;5.57;90.89;99492.78;5108599;28;20501;-68
2021/12/24 08:14:32;;;;;;;20.25;12.15;;;;;;;5.67;91.13;99491.06;5100233;28;20043;-67
2021/12/24 08:16:58;;;;;;;18.88;12.07;;;;;;;5.76;90.79;99498.31;5097242;28;20028;-67
2021/12/24 08:19:23;;;;;;;17.17;10.77;;;;;;;5.78;90.48;99500.84;5094487;28;20028;-67
2021/12/24 08:21:50;;;;;;;17.75;11.13;;;;;;;5.84;90.38;99508.38;5092533;28;20036;-67
2021/12/24 08:24:15;;;;;;;19.25;11.70;;;;;;;5.86;90.78;99491.28;5093765;28;20082;-67
2021/12/24 08:26:42;;;;;;;19.13;11.07;;;;;;;5.98;90.19;99516.91;5100713;27;20054;-67
2021/12/24 08:29:08;;;;;;;18.80;11.88;;;;;;;6.08;90.34;99520.50;5099716;28;20067;-67
2021/12/24 08:31:34;;;;;;;28.77;16.30;;;;;;;6.14;89.27;99525.34;5091790;28;20059;-67
2021/12/24 08:34:01;;;;;;;24.98;13.60;;;;;;;6.21;89.08;99529.19;5100251;28;20102;-68
2021/12/24 08:36:26;;;;;;;26.48;12.98;;;;;;;6.31;89.22;99538.09;5092795;28;20036;-69
2021/12/24 08:38:52;;;;;;;24.63;12.23;;;;;;;6.45;87.71;99542.28;5098601;28;20058;-68
2021/12/24 08:41:17;;;;;;;18.27;11.48;;;;;;;6.51;87.68;99552.41;5095944;28;20032;-67
2021/12/24 08:43:43;;;;;;;23.42;12.95;;;;;;;6.55;87.03;99537.88;5108671;28;20755;-68
2021/12/24 08:46:08;;;;;;;18.80;12.13;;;;;;;6.59;86.85;99534.81;5094363;28;20096;-69
2021/12/24 08:48:34;;;;;;;27.05;15.98;;;;;;;6.57;86.61;99526.09;5103760;28;20032;-69
2021/12/24 08:50:59;;;;;;;25.48;15.55;;;;;;;6.68;86.04;99527.88;5098316;28;20130;-68
2021/12/24 08:53:26;;;;;;;22.65;13.60;;;;;;;6.73;85.67;99537.16;5100920;28;20032;-69
2021/12/24 08:55:52;;;;;;;27.83;16.63;;;;;;;6.79;85.31;99535.78;5091186;28;20024;-69
2021/12/24 08:58:19;;;;;;;30.70;18.27;;;;;;;6.80;84.64;99543.66;5097323;27;20185;-69
2021/12/24 09:00:44;;;;;;;25.83;15.32;;;;;;;6.82;84.94;99533.72;5100575;28;20072;-69
2021/12/24 09:03:10;;;;;;;23.60;14.40;;;;;;;6.82;84.82;99527.53;5094859;28;20040;-68
2021/12/24 09:05:36;;;;;;;24.50;13.60;;;;;;;6.92;84.40;99536.44;5101745;28;20115;-68
2021/12/24 09:08:02;;;;;;;26.77;13.35;;;;;;;6.98;84.14;99536.78;5087100;28;20027;-69
2021/12/24 09:10:27;;;;;;;28.83;15.55;;;;;;;7.10;83.24;99544.69;5099519;28;20027;-68
2021/12/24 09:12:53;;;;;;;19.27;12.13;;;;;;;7.18;82.85;99542.19;5097951;27;20062;-68
2021/12/24 09:15:19;;;;;;;15.80;10.77;;;;;;;7.15;82.08;99531.81;5101426;28;20027;-69
2021/12/24 09:17:46;;;;;;;19.50;12.48;;;;;;;7.27;82.16;99547.59;5101046;27;20594;-69
2021/12/24 09:20:16;;;;;;;18.67;12.32;;;;;;;7.34;81.02;99539.88;5097727;28;20017;-69
2021/12/24 09:22:42;;;;;;;21.33;12.85;;;;;;;7.37;81.70;99537.81;5097704;28;20093;-68
2021/12/24 09:25:09;;;;;;;38.20;22.58;;;;;;;7.35;81.37;99528.25;5098792;27;20055;-68
2021/12/24 09:27:34;;;;;;;29.60;18.17;;;;;;;7.35;81.74;99529.09;5104388;28;20088;-69
2021/12/24 09:30:00;;;;;;;30.75;18.33;;;;;;;7.37;80.96;99526.28;5095499;27;20158;-69
2021/12/24 09:32:29;;;;;;;20.52;13.00;;;;;;;7.43;81.14;99515.09;5102717;28;20047;-69
2021/12/24 09:34:55;;;;;;;17.25;11.23;;;;;;;7.42;80.51;99510.75;5090769;28;20031;-69
2021/12/24 09:37:21;;;;;;;21.25;12.82;;;;;;;7.55;80.36;99524.69;5095375;28;20031;-69
2021/12/24 09:39:46;;;;;;;18.73;12.48;;;;;;;7.62;80.45;99520.50;5096257;27;20482;-70
2021/12/24 09:42:12;;;;;;;18.48;10.50;;;;;;;7.55;79.49;99500.69;5095257;28;20103;-69
2021/12/24 09:44:38;;;;;;;22.73;11.57;;;;;;;7.58;79.46;99500.41;5097020;28;20138;-69
2021/12/24 09:47:04;;;;;;;19.42;12.27;;;;;;;7.63;79.61;99495.50;5102393;28;20035;-69
2021/12/24 09:49:29;;;;;;;18.95;11.75;;;;;;;7.74;79.58;99498.06;5097308;28;20085;-70
2021/12/24 09:51:56;;;;;;;18.45;11.10;;;;;;;7.77;79.34;99484.44;5092572;28;20113;-69
2021/12/24 09:54:24;;;;;;;19.45;11.20;;;;;;;7.83;78.84;99481.25;5093144;28;20035;-69
2021/12/24 09:56:53;;;;;;;16.90;10.82;;;;;;;7.88;78.69;99481.66;5107198;28;20039;-70
2021/12/24 09:59:19;;;;;;;17.55;11.38;;;;;;;7.93;77.82;99476.75;5097485;28;20047;-69
2021/12/24 10:02:00;;;;;;;16.30;10.90;;;;;;;7.95;77.89;99472.09;5090841;28;20032;-69
2021/12/24 10:04:31;;;;;;;19.45;11.30;;;;;;;8.04;78.33;99472.13;5093752;28;20049;-69
2021/12/24 10:07:00;;;;;;;16.98;10.77;;;;;;;8.02;77.46;99462.53;5097548;28;20560;-70
2021/12/24 10:09:37;;;;;;;15.95;9.90;;;;;;;8.07;77.81;99447.81;5092219;28;20480;-68
2021/12/24 10:12:14;;;;;;;17.77;10.73;;;;;;;8.15;77.45;99458.63;5095171;27;20036;-70
2021/12/24 10:14:49;;;;;;;19.45;9.95;;;;;;;8.15;77.19;99449.75;5093399;28;20034;-70
2021/12/24 10:17:24;;;;;;;19.15;10.80;;;;;;;8.19;77.78;99454.69;5096181;27;20024;-69
2021/12/24 10:19:53;;;;;;;13.77;9.13;;;;;;;8.15;77.44;99444.41;5097778;28;20054;-69
2021/12/24 10:22:19;;;;;;;19.00;10.30;;;;;;;8.26;76.90;99455.84;5091104;28;20743;-69
2021/12/24 10:25:07;;;;;;;16.77;9.80;;;;;;;8.31;77.26;99453.59;5092093;28;20024;-70
2021/12/24 10:27:34;;;;;;;19.75;9.55;;;;;;;8.37;76.52;99454.84;5102653;27;20039;-69
2021/12/24 10:30:14;;;;;;;16.13;10.30;;;;;;;8.27;76.40;99428.16;5097504;28;20044;-69
2021/12/24 10:32:39;;;;;;;13.38;9.23;;;;;;;8.39;76.06;99442.22;5093275;28;20050;-70
2021/12/24 10:35:18;;;;;;;13.27;9.02;;;;;;;8.28;76.07;99412.97;5100597;28;20031;-68
2021/12/24 10:37:44;;;;;;;13.75;9.23;;;;;;;8.41;75.95;99429.53;5092003;27;20039;-70
2021/12/24 10:40:10;;;;;;;14.00;8.63;;;;;;;8.43;76.44;99427.56;5099846;28;20028;-69
2021/12/24 10:42:40;;;;;;;17.45;9.38;;;;;;;8.44;75.93;99415.88;5102447;27;20044;-70
2021/12/24 10:45:15;;;;;;;20.23;11.23;;;;;;;8.47;75.99;99420.94;5097591;28;20039;-69
2021/12/24 10:47:41;;;;;;;25.55;13.48;;;;;;;8.49;75.86;99410.97;5093962;27;20052;-68
2021/12/24 10:55:24;;;;;;;18.05;11.93;;;;;;;8.57;75.82;99422.63;5099573;28;20429;-71
2021/12/24 10:57:54;;;;;;;15.95;9.90;;;;;;;8.59;76.05;99411.78;5102722;28;20062;-70
2021/12/24 11:00:45;;;;;;;22.77;12.43;;;;;;;8.64;75.63;99412.22;5097408;28;20070;-70
2021/12/24 11:03:16;;;;;;;21.40;11.68;;;;;;;8.62;75.26;99399.00;5098121;28;20043;-69
2021/12/24 11:05:43;;;;;;;18.92;11.55;;;;;;;8.64;75.72;99396.19;5095859;28;20031;-69
2021/12/24 11:08:12;;;;;;;17.77;9.27;;;;;;;8.71;75.28;99395.44;5100721;28;20031;-69
2021/12/24 11:10:43;;;;;;;18.60;9.52;;;;;;;8.74;75.35;99392.47;5096691;28;20036;-69
2021/12/24 11:13:13;;;;;;;14.57;8.95;;;;;;;8.82;75.01;99386.41;5098910;28;20498;-70
2021/12/24 11:15:43;;;;;;;16.02;9.15;;;;;;;8.81;74.80;99374.84;5098211;27;20048;-70
2021/12/24 11:18:20;;;;;;;13.95;9.38;;;;;;;8.88;75.70;99383.16;5098295;28;20110;-69
2021/12/24 11:20:54;;;;;;;15.25;9.70;;;;;;;8.95;76.70;99385.09;5104595;28;20097;-70
2021/12/24 11:23:21;;;;;;;16.80;10.00;;;;;;;9.03;77.39;99387.84;5101833;28;20080;-70
2021/12/24 11:25:54;;;;;;;14.65;9.38;;;;;;;9.14;78.09;99378.81;5092907;28;20355;-69
2021/12/24 11:28:22;;;;;;;17.60;11.20;;;;;;;9.22;78.80;99379.75;5095033;28;20107;-70
2021/12/24 11:30:52;;;;;;;16.33;11.25;;;;;;;9.32;79.86;99374.31;5097531;27;20088;-70
2021/12/24 11:33:23;;;;;;;12.00;8.73;;;;;;;9.42;79.04;99369.78;5096822;28;20028;-69
2021/12/24 11:35:50;;;;;;;17.80;11.18;;;;;;;9.52;78.43;99367.88;5100957;27;20036;-68
2021/12/24 11:38:20;;;;;;;14.88;8.55;;;;;;;9.54;77.68;99367.72;5099498;28;20463;-70
2021/12/24 11:40:48;;;;;;;12.90;8.38;;;;;;;9.68;76.98;99377.91;5097204;28;20125;-69
2021/12/24 11:43:15;;;;;;;18.05;10.45;;;;;;;9.71;76.12;99369.56;5100351;28;20028;-69
2021/12/24 11:45:40;;;;;;;15.85;10.02;;;;;;;9.68;75.75;99357.34;5100976;27;20067;-70
2021/12/24 11:48:06;;;;;;;14.50;9.93;;;;;;;9.75;76.08;99369.13;5092599;28;20438;-70
2021/12/24 11:50:33;;;;;;;17.77;8.73;;;;;;;9.83;75.10;99369.19;5100119;27;20126;-70
2021/12/24 11:53:01;;;;;;;14.70;8.38;;;;;;;9.85;75.34;99366.34;5094731;28;20387;-71
2021/12/24 11:55:33;;;;;;;11.25;7.70;;;;;;;9.85;75.42;99356.50;5099913;28;20649;-70
2021/12/24 11:58:06;;;;;;;12.25;7.78;;;;;;;9.83;74.79;99346.94;5093812;28;20612;-70
2021/12/24 12:00:39;;;;;;;10.75;7.22;;;;;;;9.88;74.74;99358.88;5101394;28;20023;-70
2021/12/24 12:03:06;;;;;;;10.48;7.93;;;;;;;9.90;74.85;99350.69;5096297;27;20054;-71
2021/12/24 12:05:38;;;;;;;10.60;7.57;;;;;;;9.94;75.25;99365.44;5097508;28;20032;-70
2021/12/24 12:08:22;;;;;;;12.38;8.05;;;;;;;9.91;75.20;99352.34;5102634;28;20039;-70
2021/12/24 12:11:06;;;;;;;13.05;7.60;;;;;;;9.92;75.58;99346.84;5098178;28;20470;-69
2021/12/24 12:13:50;;;;;;;12.70;6.72;;;;;;;9.97;74.81;99347.22;5095460;28;20379;-70
2021/12/24 12:16:26;;;;;;;12.15;7.05;;;;;;;10.01;74.78;99351.28;5092003;28;20035;-70
2021/12/24 12:19:09;;;;;;;14.18;9.02;;;;;;;9.95;75.04;99348.34;5101689;27;20020;-70
2021/12/24 12:21:38;;;;;;;10.40;7.50;;;;;;;10.01;75.09;99350.44;5098354;28;20528;-70
2021/12/24 12:26:51;;;;;;;11.65;7.47;;;;;;;10.02;74.89;99352.09;5098297;28;20737;-69
2021/12/24 12:29:25;;;;;;;13.63;7.97;;;;;;;10.08;74.56;99360.41;5101624;27;20035;-69
2021/12/24 12:32:01;;;;;;;11.18;7.63;;;;;;;10.07;74.47;99352.53;5101817;28;20894;-70
2021/12/24 12:34:39;;;;;;;11.18;6.93;;;;;;;10.09;74.87;99351.38;5102036;28;20093;-70
2021/12/24 12:37:23;;;;;;;8.60;6.05;;;;;;;10.08;74.36;99347.00;5105536;28;20366;-70
2021/12/24 12:39:55;;;;;;;9.27;7.10;;;;;;;10.08;74.59;99349.69;5093607;28;20036;-70
2021/12/24 12:42:42;;;;;;;11.05;6.78;;;;;;;10.09;74.42;99342.50;5098868;28;20264;-70
2021/12/24 12:45:07;;;;;;;9.13;6.60;;;;;;;10.11;74.91;99345.84;5106631;27;20399;-69
2021/12/24 12:47:52;;;;;;;10.60;7.25;;;;;;;10.07;74.74;99329.25;5093692;28;20043;-71
2021/12/24 12:50:18;;;;;;;9.98;7.28;;;;;;;10.13;74.75;99330.47;5092024;28;20032;-69
2021/12/24 12:52:45;;;;;;;13.00;7.28;;;;;;;10.11;74.65;99330.63;5100004;28;20160;-70
2021/12/24 12:55:33;;;;;;;9.82;6.88;;;;;;;10.19;74.52;99338.72;5096827;28;20039;-70
2021/12/24 12:58:25;;;;;;;12.77;7.93;;;;;;;10.24;74.12;99339.09;5101704;28;20074;-69
2021/12/24 13:01:05;;;;;;;11.07;7.05;;;;;;;10.26;73.90;99345.16;5088345;28;20423;-69
2021/12/24 13:03:32;;;;;;;10.25;6.90;;;;;;;10.29;73.78;99346.69;5101684;28;20102;-70
2021/12/24 13:06:04;;;;;;;11.48;6.93;;;;;;;10.31;73.87;99341.97;5092992;28;20375;-69
2021/12/24 13:08:36;;;;;;;11.38;7.00;;;;;;;10.35;74.68;99349.56;5098469;27;20051;-69
2021/12/24 13:11:03;;;;;;;13.50;8.05;;;;;;;10.37;74.33;99352.94;5099056;28;20040;-70
2021/12/24 13:13:53;;;;;;;14.20;8.10;;;;;;;10.38;73.85;99341.19;5091297;28;20044;-70
2021/12/24 13:16:21;;;;;;;17.58;9.85;;;;;;;10.39;73.82;99342.06;5087199;27;20741;-70
2021/12/24 13:18:58;;;;;;;9.05;6.43;;;;;;;10.50;72.80;99356.03;5102198;28;20095;-70